Time;durP1;ratioP1;P1;durP2;ratioP2;P2;SDS_P1;SDS_P2;PMS_P1;PMS_P2;Temp;Humidity;BMP_temperature;BMP_pressure;BME280_temperature;BME280_humidity;BME280_pressure;Samples;Min_cycle;Max_cycle;Signal;HPM_P1;HPM_P2
2022/04/01 00:01:16;;;;;;;3.50;2.10;;;1.30;99.90;;;;;;5093678;28;20051;-74
2022/04/01 00:03:41;;;;;;;5.40;2.40;;;1.30;99.90;;;;;;5093465;28;20044;-74
2022/04/01 00:06:07;;;;;;;5.13;2.03;;;1.20;99.90;;;;;;5093597;28;20036;-74
2022/04/01 00:08:33;;;;;;;4.68;1.80;;;1.20;99.90;;;;;;5093557;28;20036;-74
2022/04/01 00:10:58;;;;;;;5.03;1.80;;;1.20;99.90;;;;;;5093755;28;20162;-74
2022/04/01 00:13:24;;;;;;;5.60;2.00;;;1.20;99.90;;;;;;5093390;28;20040;-74
2022/04/01 00:15:50;;;;;;;7.05;2.40;;;1.20;99.90;;;;;;5076515;28;20032;-74
2022/04/01 00:18:16;;;;;;;4.57;1.90;;;1.20;99.90;;;;;;5093637;28;20055;-74
2022/04/01 00:20:42;;;;;;;3.33;1.83;;;1.20;99.90;;;;;;5093296;28;20128;-74
2022/04/01 00:23:07;;;;;;;5.05;1.70;;;1.30;99.90;;;;;;5093379;28;20129;-74
2022/04/01 00:25:33;;;;;;;4.57;1.73;;;1.20;99.90;;;;;;5076359;28;20450;-74
2022/04/01 00:27:58;;;;;;;5.78;1.75;;;1.20;99.90;;;;;;5093135;28;20071;-74
2022/04/01 00:30:24;;;;;;;4.03;1.48;;;1.20;99.90;;;;;;5093416;28;20036;-74
2022/04/01 00:32:50;;;;;;;2.92;1.55;;;1.20;99.90;;;;;;5076146;28;20032;-74
2022/04/01 00:35:15;;;;;;;7.20;1.88;;;1.20;99.90;;;;;;5093321;28;20032;-74
2022/04/01 00:37:41;;;;;;;4.60;1.70;;;1.30;99.90;;;;;;5092984;28;20411;-74
2022/04/01 00:40:09;;;;;;;3.60;1.40;;;1.30;99.90;;;;;;5092960;28;20031;-74
2022/04/01 00:42:35;;;;;;;6.00;1.60;;;1.30;99.90;;;;;;5076102;28;20059;-74
2022/04/01 00:45:00;;;;;;;3.72;1.85;;;1.30;99.90;;;;;;5092906;28;20487;-74
2022/04/01 00:47:26;;;;;;;2.13;1.30;;;1.30;99.90;;;;;;5092825;28;20036;-74
2022/04/01 00:49:54;;;;;;;3.60;1.77;;;1.40;99.90;;;;;;5092765;28;20043;-74
2022/04/01 00:52:21;;;;;;;4.20;1.58;;;1.30;99.90;;;;;;5075317;28;20032;-74
2022/04/01 00:54:48;;;;;;;3.30;1.60;;;1.40;99.90;;;;;;5092672;28;20040;-74
2022/04/01 00:57:15;;;;;;;2.88;1.50;;;1.40;99.90;;;;;;5092951;28;20088;-74
2022/04/01 00:59:42;;;;;;;3.15;1.27;;;1.40;99.90;;;;;;5092878;28;20039;-74
2022/04/01 01:02:08;;;;;;;3.67;1.60;;;1.40;99.90;;;;;;5092544;28;20047;-74
2022/04/01 01:04:34;;;;;;;4.07;1.42;;;1.40;99.90;;;;;;5075492;28;20040;-74
2022/04/01 01:07:02;;;;;;;4.82;1.48;;;1.40;99.90;;;;;;5092782;28;20154;-74
2022/04/01 01:09:28;;;;;;;4.97;1.65;;;1.40;99.90;;;;;;5092426;28;20495;-74
2022/04/01 01:11:54;;;;;;;1.98;1.20;;;1.40;99.90;;;;;;5092429;28;20152;-74
2022/04/01 01:14:31;;;;;;;4.75;1.60;;;1.40;99.90;;;;;;5092581;28;20040;-74
2022/04/01 01:16:58;;;;;;;5.60;2.05;;;1.40;99.90;;;;;;5092609;28;20047;-74
2022/04/01 01:19:24;;;;;;;2.75;1.40;;;1.40;99.90;;;;;;5092611;28;20090;-74
2022/04/01 01:21:53;;;;;;;3.90;1.55;;;1.50;99.90;;;;;;5092264;28;20069;-74
2022/04/01 01:24:31;;;;;;;3.75;1.33;;;1.50;99.90;;;;;;5092146;28;20097;-74
2022/04/01 01:26:57;;;;;;;2.90;1.55;;;1.50;99.90;;;;;;5092524;28;20040;-74
2022/04/01 01:29:26;;;;;;;3.55;1.67;;;1.50;99.90;;;;;;5099832;22;21516;-73
2022/04/01 01:31:54;;;;;;;3.78;1.70;;;1.50;99.90;;;;;;5092419;28;20047;-71
2022/04/01 01:34:20;;;;;;;3.38;1.50;;;1.50;99.90;;;;;;5092430;28;20161;-71
2022/04/01 01:36:46;;;;;;;5.68;1.60;;;1.50;99.90;;;;;;5092422;28;20044;-71
2022/04/01 01:39:12;;;;;;;4.63;1.60;;;1.60;99.90;;;;;;5075423;28;20552;-71
2022/04/01 01:41:37;;;;;;;4.28;1.52;;;1.50;99.90;;;;;;5092301;28;20538;-71
2022/04/01 01:44:04;;;;;;;5.10;1.30;;;1.50;99.90;;;;;;5091913;28;20392;-71
2022/04/01 01:46:30;;;;;;;5.82;1.40;;;1.50;99.90;;;;;;5091984;28;20499;-71
2022/04/01 01:48:55;;;;;;;4.30;1.77;;;1.50;99.90;;;;;;5075178;28;20040;-71
2022/04/01 01:56:50;;;;;;;4.38;1.60;;;1.50;99.90;;;;;;5091863;28;20044;-71
2022/04/01 01:59:16;;;;;;;4.88;1.60;;;1.50;99.90;;;;;;5092059;28;20177;-71
2022/04/01 02:01:42;;;;;;;4.72;1.63;;;1.40;99.90;;;;;;5092081;28;20510;-71
2022/04/01 02:04:09;;;;;;;5.20;1.50;;;1.40;99.90;;;;;;5091784;28;20044;-71
2022/04/01 02:06:35;;;;;;;4.60;1.75;;;1.40;99.90;;;;;;5095807;28;20043;-71
2022/04/01 02:09:01;;;;;;;5.18;1.70;;;1.40;99.90;;;;;;5096077;28;20036;-71
2022/04/01 02:11:27;;;;;;;4.13;1.75;;;1.40;99.90;;;;;;5079198;28;20035;-70
2022/04/01 02:13:52;;;;;;;5.28;1.50;;;1.40;99.90;;;;;;5095809;28;20040;-70
2022/04/01 02:16:19;;;;;;;4.45;1.67;;;1.40;99.90;;;;;;5095965;28;20055;-70
2022/04/01 02:18:45;;;;;;;3.95;1.83;;;1.40;99.90;;;;;;5078970;28;20040;-70
2022/04/01 02:21:11;;;;;;;5.45;1.73;;;1.40;99.90;;;;;;5095886;28;20403;-70
2022/04/01 02:23:43;;;;;;;3.65;1.73;;;1.40;99.90;;;;;;5095701;28;20044;-70
2022/04/01 02:26:09;;;;;;;3.15;1.40;;;1.50;99.90;;;;;;5095813;28;20138;-70
2022/04/01 02:28:36;;;;;;;5.78;1.90;;;1.50;99.90;;;;;;5095541;28;20040;-71
2022/04/01 02:31:03;;;;;;;4.78;1.60;;;1.50;99.90;;;;;;5078446;28;20059;-71
2022/04/01 02:33:29;;;;;;;2.95;1.80;;;1.50;99.90;;;;;;5095669;28;20127;-71
2022/04/01 02:35:58;;;;;;;2.95;1.50;;;1.50;99.90;;;;;;5095345;28;20070;-71
2022/04/01 02:38:29;;;;;;;5.20;2.40;;;1.50;99.90;;;;;;5095315;28;20040;-71
2022/04/01 02:40:56;;;;;;;3.33;1.40;;;1.50;99.90;;;;;;5095293;28;20059;-71
2022/04/01 02:43:22;;;;;;;5.18;1.88;;;1.50;99.90;;;;;;5095321;28;20048;-71
2022/04/01 02:45:48;;;;;;;3.38;1.70;;;1.50;99.90;;;;;;5095197;28;20404;-71
2022/04/01 02:48:19;;;;;;;2.83;1.40;;;1.50;99.90;;;;;;5095150;28;20040;-71
2022/04/01 02:50:46;;;;;;;4.22;1.95;;;1.50;99.90;;;;;;5095058;28;20043;-71
2022/04/01 02:53:13;;;;;;;3.90;1.45;;;1.50;99.90;;;;;;5095083;28;20048;-71
2022/04/01 02:55:39;;;;;;;6.60;1.65;;;1.50;99.90;;;;;;5095021;28;20039;-71
2022/04/01 02:58:06;;;;;;;5.07;1.73;;;1.50;99.90;;;;;;5095209;28;20043;-71
2022/04/01 03:00:37;;;;;;;3.20;1.70;;;1.50;99.90;;;;;;5094780;28;20054;-71
2022/04/01 03:03:06;;;;;;;4.88;1.88;;;1.50;99.90;;;;;;5094797;28;20040;-70
2022/04/01 03:05:40;;;;;;;4.22;1.65;;;1.50;99.90;;;;;;5094784;28;20032;-70
2022/04/01 03:08:07;;;;;;;4.18;1.50;;;1.60;99.90;;;;;;5094702;28;20082;-70
2022/04/01 03:10:39;;;;;;;6.20;1.60;;;1.60;99.90;;;;;;5094901;28;20036;-71
2022/04/01 03:13:07;;;;;;;2.95;1.40;;;1.60;99.90;;;;;;5094725;28;20043;-71
2022/04/01 03:15:33;;;;;;;2.42;1.23;;;1.60;99.90;;;;;;5094117;28;20122;-71
2022/04/01 03:17:59;;;;;;;4.80;1.45;;;1.60;99.90;;;;;;5094827;28;20391;-70
2022/04/01 03:20:26;;;;;;;3.55;1.40;;;1.70;99.90;;;;;;5077592;28;20044;-70
2022/04/01 03:22:52;;;;;;;3.55;1.10;;;1.70;99.90;;;;;;5094407;28;20498;-70
2022/04/01 03:25:20;;;;;;;3.63;1.50;;;1.70;99.90;;;;;;5077768;28;20032;-71
2022/04/01 03:27:47;;;;;;;4.40;1.70;;;1.70;99.90;;;;;;5094398;28;20028;-70
2022/04/01 03:30:13;;;;;;;4.00;1.33;;;1.70;99.90;;;;;;5077574;28;20076;-70
2022/04/01 03:32:40;;;;;;;5.35;1.40;;;1.80;99.90;;;;;;5094314;28;20040;-71
2022/04/01 03:35:09;;;;;;;4.22;1.23;;;1.70;99.90;;;;;;5094554;28;20104;-70
2022/04/01 03:37:35;;;;;;;4.13;1.70;;;1.80;99.90;;;;;;5094167;28;20040;-70
2022/04/01 03:40:01;;;;;;;3.13;1.10;;;1.80;99.90;;;;;;5094092;28;20043;-70
2022/04/01 03:42:30;;;;;;;3.03;1.20;;;1.80;99.90;;;;;;5094339;28;20051;-70
2022/04/01 03:44:58;;;;;;;5.10;1.40;;;1.80;99.90;;;;;;5094039;28;20040;-70
2022/04/01 03:47:32;;;;;;;2.85;1.38;;;1.80;99.90;;;;;;5077175;28;20040;-70
2022/04/01 03:50:00;;;;;;;5.50;1.30;;;1.80;99.90;;;;;;5094160;28;20032;-70
2022/04/01 03:52:29;;;;;;;4.47;1.50;;;1.80;99.90;;;;;;5077060;28;20120;-70
2022/04/01 03:54:59;;;;;;;2.47;1.30;;;1.90;99.90;;;;;;5093846;28;20495;-70
2022/04/01 03:57:34;;;;;;;3.30;1.58;;;1.80;99.90;;;;;;5093814;28;20067;-70
2022/04/01 04:00:00;;;;;;;3.10;1.50;;;1.90;99.90;;;;;;5093957;28;20135;-70
2022/04/01 04:02:26;;;;;;;4.97;2.10;;;1.90;99.90;;;;;;5093938;28;20564;-70
2022/04/01 04:04:54;;;;;;;5.38;2.05;;;1.90;99.90;;;;;;5093630;28;20040;-70
2022/04/01 04:07:20;;;;;;;3.03;1.50;;;1.90;99.90;;;;;;5076755;28;20526;-70
2022/04/01 04:09:46;;;;;;;3.25;1.65;;;1.90;99.90;;;;;;5093517;28;20123;-70
2022/04/01 04:12:13;;;;;;;3.30;1.55;;;1.90;99.90;;;;;;5093500;28;20040;-70
2022/04/01 04:14:42;;;;;;;6.80;1.42;;;2.00;99.90;;;;;;5076562;28;20039;-70
2022/04/01 04:17:14;;;;;;;3.92;1.30;;;2.00;99.90;;;;;;5093670;28;20088;-70
2022/04/01 04:20:01;;;;;;;3.25;1.50;;;2.00;99.90;;;;;;5093588;28;20086;-70
2022/04/01 04:22:40;;;;;;;5.95;1.67;;;1.90;99.90;;;;;;5093327;28;20549;-70
2022/04/01 04:25:16;;;;;;;2.72;1.50;;;1.90;99.90;;;;;;5093214;28;20411;-70
2022/04/01 04:27:56;;;;;;;3.70;1.38;;;2.00;99.90;;;;;;5092664;28;20044;-70
2022/04/01 04:30:28;;;;;;;5.85;1.40;;;2.00;99.90;;;;;;5092995;28;20124;-70
2022/04/01 04:33:04;;;;;;;3.92;1.10;;;2.00;99.90;;;;;;5093149;28;20491;-70
2022/04/01 04:35:30;;;;;;;3.65;1.50;;;2.10;99.90;;;;;;5093046;28;20416;-70
2022/04/01 04:37:59;;;;;;;7.40;1.60;;;2.10;99.90;;;;;;5093024;28;20036;-70
2022/04/01 04:40:25;;;;;;;3.90;1.15;;;2.10;99.90;;;;;;5092893;28;20411;-70
2022/04/01 04:42:53;;;;;;;3.50;1.10;;;2.10;99.90;;;;;;5092853;28;20070;-70
2022/04/01 04:45:21;;;;;;;3.72;1.17;;;2.10;99.90;;;;;;5092865;28;20044;-70
2022/04/01 04:47:48;;;;;;;4.70;1.65;;;2.10;99.90;;;;;;5075889;28;20044;-70
2022/04/01 04:50:16;;;;;;;4.10;1.27;;;2.10;99.90;;;;;;5093001;28;20510;-70
2022/04/01 04:52:44;;;;;;;1.95;1.05;;;2.10;99.90;;;;;;5092755;28;20051;-70
2022/04/01 04:55:14;;;;;;;5.80;1.00;;;2.10;99.90;;;;;;5092701;28;20032;-70
2022/04/01 04:57:42;;;;;;;4.22;1.00;;;2.10;99.90;;;;;;5092648;28;20411;-70
2022/04/01 05:00:08;;;;;;;5.18;1.17;;;2.10;99.90;;;;;;5092838;28;20044;-70
2022/04/01 05:02:55;;;;;;;2.88;1.05;;;2.20;99.90;;;;;;5075692;28;20036;-70
2022/04/01 05:05:34;;;;;;;3.90;1.20;;;2.10;99.90;;;;;;5075654;28;20509;-70
2022/04/01 05:08:46;;;;;;;3.60;1.00;;;2.20;99.90;;;;;;5092507;28;20487;-70
2022/04/01 05:11:45;;;;;;;6.82;1.00;;;2.20;99.90;;;;;;5078056;28;20048;-70
2022/04/01 05:14:46;;;;;;;5.75;1.27;;;2.20;99.90;;;;;;5092458;28;20415;-70
2022/04/01 05:17:25;;;;;;;3.05;0.88;;;2.10;99.90;;;;;;5081823;28;20055;-70
2022/04/01 05:20:00;;;;;;;3.03;1.35;;;2.10;99.90;;;;;;5092260;28;20043;-70
2022/04/01 05:23:01;;;;;;;8.95;1.65;;;2.10;99.90;;;;;;5092335;28;20043;-70
2022/04/01 05:25:30;;;;;;;4.85;1.33;;;2.20;99.90;;;;;;5034538;28;20053;-70
2022/04/01 05:28:01;;;;;;;2.97;1.20;;;2.10;99.90;;;;;;5034670;28;20096;-70
2022/04/01 05:30:30;;;;;;;4.03;1.20;;;2.10;99.90;;;;;;5034255;28;20056;-70
2022/04/01 05:33:15;;;;;;;3.08;1.15;;;2.10;99.90;;;;;;5034422;28;20051;-70
2022/04/01 05:35:43;;;;;;;4.65;1.00;;;2.10;99.90;;;;;;5018201;28;20052;-70
2022/04/01 05:38:09;;;;;;;3.28;1.13;;;2.10;99.90;;;;;;5034574;28;20151;-70
2022/04/01 05:40:37;;;;;;;2.35;1.00;;;2.10;99.90;;;;;;5034181;28;20408;-70
2022/04/01 05:43:04;;;;;;;4.65;1.25;;;2.10;99.90;;;;;;5034537;28;20048;-70
2022/04/01 05:45:31;;;;;;;2.88;0.80;;;2.10;99.90;;;;;;5034429;28;20077;-70
2022/04/01 05:47:58;;;;;;;5.07;1.08;;;2.10;99.90;;;;;;5034272;28;20489;-70
2022/04/01 05:50:25;;;;;;;3.70;1.10;;;2.10;99.90;;;;;;5034378;28;20529;-70
2022/04/01 05:52:52;;;;;;;2.47;1.00;;;2.10;99.90;;;;;;5034140;28;20045;-70
2022/04/01 05:55:23;;;;;;;3.97;1.08;;;2.20;99.90;;;;;;5034179;28;20053;-70
2022/04/01 05:57:49;;;;;;;4.90;1.40;;;2.20;99.90;;;;;;5034211;28;20041;-70
2022/04/01 06:00:15;;;;;;;6.70;1.40;;;2.20;99.90;;;;;;5034041;28;20067;-70
2022/04/01 06:02:46;;;;;;;3.67;1.00;;;2.20;99.90;;;;;;5073373;28;20048;-70
2022/04/01 06:05:21;;;;;;;6.95;1.15;;;2.20;99.90;;;;;;5075160;28;20040;-70
2022/04/01 06:08:00;;;;;;;3.30;1.00;;;2.20;99.90;;;;;;5092088;28;20514;-70
2022/04/01 06:10:57;;;;;;;4.82;1.13;;;2.20;99.90;;;;;;5074865;28;20126;-70
2022/04/01 06:13:49;;;;;;;5.30;1.02;;;2.30;99.90;;;;;;5091941;28;20032;-70
2022/04/01 06:16:27;;;;;;;2.90;0.82;;;2.30;99.90;;;;;;5091813;28;20503;-70
2022/04/01 06:19:08;;;;;;;4.45;1.08;;;2.30;99.90;;;;;;5091974;28;20075;-70
2022/04/01 06:21:59;;;;;;;4.53;1.23;;;2.40;99.90;;;;;;5091653;28;20089;-70
2022/04/01 06:24:51;;;;;;;4.43;1.17;;;2.40;99.90;;;;;;5059056;28;20089;-70
2022/04/01 06:27:22;;;;;;;6.20;1.15;;;2.40;99.90;;;;;;5074786;28;20036;-70
2022/04/01 06:30:05;;;;;;;4.15;1.08;;;2.50;99.90;;;;;;5074862;28;20437;-70
2022/04/01 06:32:49;;;;;;;6.82;1.35;;;2.50;99.90;;;;;;5091531;28;20047;-70
2022/04/01 06:35:26;;;;;;;2.20;0.90;;;2.60;99.90;;;;;;5091527;28;20048;-70
2022/04/01 06:38:03;;;;;;;4.63;1.15;;;2.60;99.90;;;;;;5091794;28;20040;-70
2022/04/01 06:40:51;;;;;;;5.20;1.20;;;2.60;99.90;;;;;;5091426;28;20123;-70
2022/04/01 06:43:17;;;;;;;3.67;1.00;;;2.60;99.90;;;;;;5081735;28;20567;-71
2022/04/01 06:45:43;;;;;;;5.45;1.00;;;2.70;99.90;;;;;;5091601;28;20132;-71
2022/04/01 06:48:08;;;;;;;4.07;1.65;;;2.70;99.90;;;;;;5091442;28;20039;-71
2022/04/01 06:50:34;;;;;;;6.05;1.30;;;2.80;99.90;;;;;;5091791;28;20149;-71
2022/04/01 06:53:00;;;;;;;3.00;1.10;;;2.80;99.90;;;;;;5094951;28;20044;-71
2022/04/01 06:55:26;;;;;;;3.03;1.15;;;2.80;99.90;;;;;;5094969;28;20036;-70
2022/04/01 06:57:52;;;;;;;3.88;1.20;;;2.90;99.90;;;;;;5095215;28;20040;-70
2022/04/01 07:00:19;;;;;;;3.78;1.17;;;2.90;99.90;;;;;;5094867;28;20040;-71
2022/04/01 07:02:46;;;;;;;4.82;1.15;;;2.90;99.90;;;;;;5094898;28;20028;-70
2022/04/01 07:05:12;;;;;;;3.08;0.90;;;3.00;99.90;;;;;;5094819;28;20028;-70
2022/04/01 07:07:43;;;;;;;6.32;1.45;;;3.00;99.90;;;;;;5078096;28;20484;-70
2022/04/01 07:10:10;;;;;;;3.75;1.15;;;3.00;99.90;;;;;;5077759;28;20082;-70
2022/04/01 07:12:37;;;;;;;3.00;1.13;;;3.00;99.90;;;;;;5094667;28;20040;-70
2022/04/01 07:15:03;;;;;;;4.18;1.20;;;3.00;99.90;;;;;;5094628;28;20076;-70
2022/04/01 07:17:29;;;;;;;9.32;1.45;;;3.10;99.90;;;;;;5094853;28;20499;-70
2022/04/01 07:19:55;;;;;;;5.85;1.20;;;3.10;99.90;;;;;;5094712;28;20131;-70
2022/04/01 07:22:21;;;;;;;4.50;1.42;;;3.10;99.90;;;;;;5077576;28;20131;-71
2022/04/01 07:24:47;;;;;;;4.47;1.02;;;3.10;99.90;;;;;;5094479;28;20032;-72
2022/04/01 07:27:14;;;;;;;5.32;1.10;;;3.10;99.90;;;;;;5094425;28;20085;-71
2022/04/01 07:29:40;;;;;;;2.92;1.20;;;3.20;99.90;;;;;;5094182;28;20042;-71
2022/04/01 07:34:52;;;;;;;5.97;1.42;;;3.10;99.90;;;;;;5094571;28;20063;-72
2022/04/01 07:37:23;;;;;;;3.50;1.15;;;3.10;99.90;;;;;;5094239;28;20075;-72
2022/04/01 07:39:49;;;;;;;7.22;1.42;;;3.10;99.90;;;;;;5077300;28;20032;-72
2022/04/01 07:42:15;;;;;;;3.95;1.13;;;3.20;99.90;;;;;;5077231;28;20044;-72
2022/04/01 07:44:41;;;;;;;5.00;1.35;;;3.20;99.90;;;;;;5093929;28;20050;-72
2022/04/01 07:47:10;;;;;;;4.78;1.17;;;3.20;99.90;;;;;;5094040;28;20036;-72
2022/04/01 07:49:40;;;;;;;2.55;1.08;;;3.10;99.90;;;;;;5093897;28;20403;-72
2022/04/01 07:52:08;;;;;;;3.35;1.30;;;3.10;99.90;;;;;;5093926;28;20115;-72
2022/04/01 07:54:35;;;;;;;7.03;1.35;;;3.20;99.90;;;;;;5093936;28;20051;-72
2022/04/01 07:57:02;;;;;;;3.22;1.23;;;3.10;99.90;;;;;;5093970;28;20515;-72
2022/04/01 07:59:27;;;;;;;4.03;1.23;;;3.10;99.90;;;;;;5076952;28;20036;-72
2022/04/01 08:01:53;;;;;;;3.15;1.25;;;3.10;99.90;;;;;;5076866;28;20039;-72
2022/04/01 08:04:19;;;;;;;4.18;1.55;;;3.10;99.90;;;;;;5076708;28;20036;-71
2022/04/01 08:06:44;;;;;;;2.08;1.10;;;3.10;99.90;;;;;;5093889;28;20121;-72
2022/04/01 08:09:10;;;;;;;4.10;1.33;;;3.10;99.90;;;;;;5093563;28;20044;-71
2022/04/01 08:11:36;;;;;;;9.32;1.75;;;3.00;99.90;;;;;;5076626;28;20042;-71
2022/04/01 08:14:02;;;;;;;3.50;1.30;;;3.10;99.90;;;;;;5093771;28;20101;-71
2022/04/01 08:16:28;;;;;;;5.38;2.50;;;3.00;99.90;;;;;;5093361;28;20438;-71
2022/04/01 08:18:54;;;;;;;5.90;2.08;;;3.00;99.90;;;;;;5076802;28;20126;-71
2022/04/01 08:21:19;;;;;;;5.57;1.88;;;3.00;99.90;;;;;;5093256;28;20071;-71
2022/04/01 08:23:45;;;;;;;4.78;2.17;;;2.90;99.90;;;;;;5093469;28;20071;-71
2022/04/01 08:26:12;;;;;;;3.83;2.00;;;2.90;99.90;;;;;;5093323;28;20038;-71
2022/04/01 08:28:38;;;;;;;4.88;2.17;;;3.00;99.90;;;;;;5093506;28;20028;-71
2022/04/01 08:31:06;;;;;;;3.60;2.03;;;3.00;99.90;;;;;;5093232;28;20403;-71
2022/04/01 08:33:31;;;;;;;3.15;2.08;;;3.00;99.90;;;;;;5093191;28;20097;-71
2022/04/01 08:35:57;;;;;;;4.18;2.10;;;3.00;99.90;;;;;;5076280;28;20040;-71
2022/04/01 08:38:23;;;;;;;5.20;2.40;;;3.00;99.90;;;;;;5076234;28;20040;-71
2022/04/01 08:40:49;;;;;;;7.05;3.40;;;3.00;99.90;;;;;;5075996;28;20040;-71
2022/04/01 08:43:24;;;;;;;4.65;2.83;;;3.00;99.90;;;;;;5092873;28;20051;-71
2022/04/01 08:45:50;;;;;;;4.63;2.97;;;3.10;99.90;;;;;;5092920;28;20043;-71
2022/04/01 08:48:15;;;;;;;4.75;2.95;;;3.10;99.90;;;;;;5092867;28;20040;-71
2022/04/01 08:50:41;;;;;;;8.48;3.53;;;3.10;99.90;;;;;;5092984;28;20036;-70
2022/04/01 08:53:07;;;;;;;6.15;3.30;;;3.10;99.90;;;;;;5092724;28;20389;-70
2022/04/01 08:55:33;;;;;;;7.47;3.72;;;3.20;99.90;;;;;;5092926;28;20062;-70
2022/04/01 08:57:58;;;;;;;6.00;3.38;;;3.20;99.90;;;;;;5093042;28;20081;-71
2022/04/01 09:00:24;;;;;;;6.75;3.63;;;3.30;99.90;;;;;;5092691;28;20483;-71
2022/04/01 09:03:06;;;;;;;5.47;3.42;;;3.30;99.90;;;;;;5075983;28;20032;-70
2022/04/01 09:05:32;;;;;;;8.20;3.83;;;3.30;99.90;;;;;;5092556;28;20047;-70
2022/04/01 09:08:07;;;;;;;7.40;4.18;;;3.30;99.90;;;;;;5092496;28;20032;-70
2022/04/01 09:10:49;;;;;;;6.43;3.83;;;3.40;99.90;;;;;;5092406;28;20081;-70
2022/04/01 09:13:15;;;;;;;6.68;3.88;;;3.40;99.90;;;;;;5075237;28;20051;-71
2022/04/01 09:15:42;;;;;;;8.10;3.90;;;3.40;99.90;;;;;;5092651;28;20036;-71
2022/04/01 09:18:08;;;;;;;5.25;3.72;;;3.40;99.90;;;;;;5092592;28;20040;-71
2022/04/01 09:20:52;;;;;;;8.52;4.43;;;3.40;99.90;;;;;;5075624;28;20098;-71
2022/04/01 09:23:22;;;;;;;6.93;3.65;;;3.50;99.90;;;;;;5092817;28;20052;-71
2022/04/01 09:25:49;;;;;;;7.50;4.15;;;3.60;99.90;;;;;;5092185;28;20071;-71
2022/04/01 09:28:29;;;;;;;10.05;4.43;;;3.60;99.90;;;;;;5092371;28;20089;-71
2022/04/01 09:31:09;;;;;;;8.85;4.30;;;3.70;99.90;;;;;;5092290;28;20097;-72
2022/04/01 09:33:47;;;;;;;7.00;4.03;;;3.80;99.90;;;;;;5092133;28;20044;-72
2022/04/01 09:36:36;;;;;;;6.97;3.58;;;3.90;99.90;;;;;;5092346;28;20391;-71
2022/04/01 09:39:11;;;;;;;8.25;4.40;;;3.90;99.90;;;;;;5092164;28;20415;-71
2022/04/01 09:41:43;;;;;;;6.72;4.25;;;3.90;99.90;;;;;;5075203;28;20048;-70
2022/04/01 09:44:21;;;;;;;6.78;4.35;;;3.80;99.90;;;;;;5075144;28;20039;-71
2022/04/01 09:46:54;;;;;;;6.50;4.10;;;3.70;99.90;;;;;;5092038;28;20090;-71
2022/04/01 09:49:34;;;;;;;;;;;3.80;99.90;;;;;;5092409;28;20097;-71
2022/04/01 09:52:00;;;;;;;5.45;4.00;;;3.80;99.90;;;;;;5109209;28;20322;-71
2022/04/01 09:54:26;;;;;;;6.22;3.83;;;3.80;99.90;;;;;;5092038;28;20549;-71
2022/04/01 09:56:54;;;;;;;8.07;4.00;;;3.80;99.90;;;;;;5091854;28;20523;-71
2022/04/01 09:59:22;;;;;;;5.43;3.45;;;3.80;99.90;;;;;;5092050;28;20044;-71
2022/04/01 10:01:48;;;;;;;6.85;4.00;;;3.80;99.90;;;;;;5091898;28;20048;-72
2022/04/01 10:04:14;;;;;;;6.68;3.58;;;3.90;99.90;;;;;;5091937;28;20130;-72
2022/04/01 10:06:41;;;;;;;8.35;3.90;;;4.00;99.90;;;;;;5091904;28;20043;-72
2022/04/01 10:09:09;;;;;;;4.57;3.30;;;4.00;99.90;;;;;;5091737;28;20523;-72
2022/04/01 10:11:43;;;;;;;6.10;3.15;;;4.20;99.90;;;;;;5092092;28;20492;-72
2022/04/01 10:14:18;;;;;;;3.30;2.33;;;4.30;99.90;;;;;;5091969;28;20078;-72
2022/04/01 10:16:45;;;;;;;7.07;2.90;;;4.30;99.90;;;;;;5092070;28;20070;-72
2022/04/01 10:19:24;;;;;;;7.05;3.08;;;4.20;99.90;;;;;;5074813;28;20043;-72
2022/04/01 10:21:51;;;;;;;6.63;3.38;;;4.10;99.90;;;;;;5074852;28;20484;-72
2022/04/01 10:24:43;;;;;;;6.97;3.75;;;4.00;99.90;;;;;;5091692;28;20055;-72
2022/04/01 10:27:33;;;;;;;7.93;3.47;;;4.10;99.90;;;;;;5094757;28;20082;-72
2022/04/01 10:29:59;;;;;;;4.63;3.08;;;4.30;99.90;;;;;;5095653;28;20044;-72
2022/04/01 10:32:35;;;;;;;4.45;2.60;;;4.50;99.90;;;;;;5095478;28;20093;-72
2022/04/01 10:35:03;;;;;;;5.55;2.70;;;4.70;99.90;;;;;;5078487;28;20039;-72
2022/04/01 10:37:31;;;;;;;5.03;2.65;;;4.60;99.90;;;;;;5095355;28;20515;-72
2022/04/01 10:40:06;;;;;;;6.20;2.60;;;4.50;99.90;;;;;;5095282;28;20044;-72
2022/04/01 10:42:35;;;;;;;5.22;2.80;;;4.50;99.90;;;;;;5095349;28;20044;-72
2022/04/01 10:45:08;;;;;;;7.05;2.42;;;4.60;99.90;;;;;;5095119;28;20052;-72
2022/04/01 10:53:45;;;;;;;4.05;2.50;;;4.90;99.90;;;;;;5095885;28;20044;-72
2022/04/01 10:56:26;;;;;;;4.05;1.90;;;5.00;99.90;;;;;;5095402;28;20036;-72
2022/04/01 10:59:03;;;;;;;5.35;2.10;;;5.20;99.90;;;;;;5095265;28;20071;-72
2022/04/01 11:01:30;;;;;;;3.55;2.03;;;5.20;99.90;;;;;;5094926;28;20048;-72
2022/04/01 11:04:21;;;;;;;6.45;1.80;;;5.20;99.90;;;;;;5094986;28;20133;-72
2022/04/01 11:07:02;;;;;;;4.03;1.95;;;5.20;99.90;;;;;;5078150;28;20040;-72
2022/04/01 11:09:47;;;;;;;5.65;2.05;;;5.10;99.90;;;;;;5096135;28;20051;-72
2022/04/01 11:12:25;;;;;;;4.45;2.88;;;5.00;99.90;;;;;;5078355;28;20173;-72
2022/04/01 11:14:56;;;;;;;4.70;2.22;;;5.00;99.90;;;;;;5078064;28;20515;-72
2022/04/01 11:17:23;;;;;;;7.00;2.50;;;5.10;99.90;;;;;;5094644;28;20043;-72
2022/04/01 11:20:29;;;;;;;6.43;2.55;;;5.20;99.90;;;;;;5094776;28;20058;-72
2022/04/01 11:22:56;;;;;;;5.15;1.95;;;5.10;99.90;;;;;;5078215;28;20132;-72
2022/04/01 11:25:22;;;;;;;3.97;1.98;;;4.90;99.90;;;;;;5094887;28;20142;-73
2022/04/01 11:27:56;;;;;;;6.50;2.20;;;4.80;99.90;;;;;;5094501;28;20119;-73
2022/04/01 11:30:27;;;;;;;3.85;1.98;;;4.70;99.90;;;;;;5094123;28;20096;-74
2022/04/01 11:32:55;;;;;;;7.68;1.83;;;4.50;99.90;;;;;;5094346;28;20044;-73
2022/04/01 11:35:24;;;;;;;4.75;1.90;;;4.50;99.90;;;;;;5077385;28;20048;-73
2022/04/01 11:37:50;;;;;;;3.25;1.77;;;4.50;99.90;;;;;;5093861;28;20411;-74
2022/04/01 11:40:25;;;;;;;4.13;1.80;;;4.50;99.90;;;;;;5094552;28;20036;-74
2022/04/01 11:42:51;;;;;;;3.70;1.65;;;4.50;99.90;;;;;;5094170;28;20749;-74
2022/04/01 11:45:17;;;;;;;4.75;1.80;;;4.50;99.90;;;;;;5077123;28;20120;-74
2022/04/01 11:47:43;;;;;;;5.30;1.63;;;4.60;99.90;;;;;;5094069;28;20070;-74
2022/04/01 11:50:11;;;;;;;4.15;1.30;;;4.70;99.90;;;;;;5094148;28;20044;-74
2022/04/01 11:52:46;;;;;;;4.60;1.63;;;4.80;99.90;;;;;;5093952;28;20040;-74
2022/04/01 11:55:17;;;;;;;3.67;1.40;;;4.90;99.90;;;;;;5093939;28;20090;-74
2022/04/01 11:57:44;;;;;;;4.88;1.30;;;4.80;99.90;;;;;;5094082;28;20574;-74
2022/04/01 12:00:15;;;;;;;2.00;1.35;;;4.80;99.90;;;;;;5093760;28;20054;-74
2022/04/01 12:02:43;;;;;;;4.65;1.52;;;4.90;99.90;;;;;;5093730;28;20048;-74
2022/04/01 12:05:10;;;;;;;4.05;1.50;;;4.90;99.90;;;;;;5093598;28;20048;-74
2022/04/01 12:10:28;;;;;;;4.78;1.60;;;5.20;99.90;;;;;;5093519;28;20071;-74
2022/04/01 12:13:02;;;;;;;5.28;1.60;;;5.30;99.90;;;;;;5076953;28;20040;-74
2022/04/01 12:15:35;;;;;;;3.72;1.23;;;5.40;99.90;;;;;;5093504;28;20553;-74
2022/04/01 12:18:01;;;;;;;3.70;1.50;;;5.40;99.90;;;;;;5076595;28;20036;-74
2022/04/01 12:20:28;;;;;;;4.03;1.40;;;5.60;99.90;;;;;;5093332;28;20515;-74
2022/04/01 12:23:03;;;;;;;3.83;1.50;;;5.60;99.90;;;;;;5076413;28;20047;-74
2022/04/01 12:25:30;;;;;;;3.50;1.50;;;5.50;99.90;;;;;;5093360;28;20127;-74
2022/04/01 12:28:07;;;;;;;3.42;1.40;;;5.40;99.90;;;;;;5093223;28;20381;-74
2022/04/01 12:30:54;;;;;;;2.67;1.58;;;5.50;99.90;;;;;;5093030;28;20040;-74
2022/04/01 12:33:31;;;;;;;10.13;2.20;;;5.50;99.90;;;;;;5076201;28;20389;-73
2022/04/01 12:36:05;;;;;;;5.43;1.70;;;5.40;99.90;;;;;;5076217;28;20496;-74
2022/04/01 12:38:37;;;;;;;3.33;1.88;;;5.40;99.90;;;;;;5093065;28;20043;-73
2022/04/01 12:41:05;;;;;;;4.57;1.80;;;5.40;99.90;;;;;;5092943;28;20047;-74
2022/04/01 12:43:31;;;;;;;7.03;2.42;;;5.40;99.90;;;;;;5092932;28;20080;-73
2022/04/01 12:46:01;;;;;;;4.63;2.13;;;5.50;99.90;;;;;;5093228;28;20082;-74
2022/04/01 12:48:28;;;;;;;5.65;1.80;;;5.70;99.90;;;;;;5092202;28;20036;-74
2022/04/01 12:51:02;;;;;;;3.42;1.90;;;5.80;99.90;;;;;;5092860;28;20047;-74
2022/04/01 12:53:31;;;;;;;2.67;1.60;;;6.00;99.90;;;;;;5092815;28;20513;-74
2022/04/01 12:56:19;;;;;;;2.35;1.40;;;6.20;99.90;;;;;;5092723;28;20040;-74
2022/04/01 12:58:50;;;;;;;5.45;2.03;;;6.30;99.90;;;;;;5092697;28;20039;-74
2022/04/01 13:01:20;;;;;;;5.15;1.85;;;6.40;99.90;;;;;;5092607;28;20036;-74
2022/04/01 13:03:47;;;;;;;7.00;1.75;;;6.50;99.90;;;;;;5092495;28;20050;-73
2022/04/01 13:06:13;;;;;;;3.80;1.88;;;6.50;99.90;;;;;;5075986;28;20043;-73
2022/04/01 13:08:42;;;;;;;4.97;1.50;;;6.60;99.90;;;;;;5075622;28;20028;-73
2022/04/01 13:11:14;;;;;;;4.90;1.92;;;6.80;99.90;;;;;;5092441;28;20055;-73
2022/04/01 13:13:41;;;;;;;5.63;1.55;;;6.80;99.90;;;;;;5092459;28;20183;-73
2022/04/01 13:16:08;;;;;;;5.50;2.00;;;6.60;99.90;;;;;;5092694;28;20484;-73
2022/04/01 13:18:34;;;;;;;4.72;1.58;;;6.50;99.90;;;;;;5075592;28;20032;-73
2022/04/01 13:21:01;;;;;;;4.88;1.60;;;6.60;99.90;;;;;;5092246;28;20439;-73
2022/04/01 13:23:28;;;;;;;4.53;1.63;;;6.50;99.90;;;;;;5092654;28;20044;-73
2022/04/01 13:25:54;;;;;;;5.70;1.75;;;6.60;99.90;;;;;;5075498;28;20404;-73
2022/04/01 13:28:20;;;;;;;3.10;1.27;;;6.60;99.90;;;;;;5092558;28;20067;-73
2022/04/01 13:30:45;;;;;;;5.38;1.45;;;6.60;99.90;;;;;;5092594;28;20121;-73